createdAt,value
2022-08-24T00:00:41.229Z,14.20
2022-08-24T00:03:11.867Z,14.20
2022-08-24T00:05:40.338Z,14.20
2022-08-24T00:08:09.564Z,14.10
2022-08-24T00:10:37.651Z,14.20
2022-08-24T00:13:05.480Z,14.20
2022-08-24T00:15:34.161Z,14.10
2022-08-24T00:18:02.111Z,14.10
2022-08-24T00:20:30.290Z,14.00
2022-08-24T00:22:58.198Z,14.00
2022-08-24T00:25:27.422Z,14.00
2022-08-24T00:27:55.280Z,14.00
2022-08-24T00:30:23.463Z,14.10
2022-08-24T00:32:51.886Z,14.00
2022-08-24T00:35:20.238Z,14.10
2022-08-24T00:37:49.682Z,14.10
2022-08-24T00:40:23.187Z,14.00
2022-08-24T00:42:53.367Z,14.00
2022-08-24T00:45:21.374Z,14.00
2022-08-24T00:47:56.006Z,13.90
2022-08-24T00:50:27.607Z,14.00
2022-08-24T00:53:02.429Z,14.00
2022-08-24T00:55:33.940Z,14.00
2022-08-24T00:58:06.278Z,13.90
2022-08-24T01:00:37.862Z,13.90
2022-08-24T01:03:07.367Z,13.90
2022-08-24T01:05:38.038Z,13.90
2022-08-24T01:08:10.337Z,13.80
2022-08-24T01:10:42.571Z,13.90
2022-08-24T01:13:13.473Z,13.90
2022-08-24T01:15:43.510Z,13.90
2022-08-24T01:18:34.614Z,13.80
2022-08-24T01:21:07.722Z,13.80
2022-08-24T01:23:40.706Z,13.70
2022-08-24T01:26:11.238Z,13.60
2022-08-24T01:28:42.243Z,13.50
2022-08-24T01:31:10.230Z,13.50
2022-08-24T01:33:38.168Z,13.50
2022-08-24T01:36:15.092Z,13.50
2022-08-24T01:38:44.377Z,13.60
2022-08-24T01:41:12.388Z,13.70
2022-08-24T01:43:41.327Z,13.60
2022-08-24T01:46:10.483Z,13.60
2022-08-24T01:48:38.363Z,13.50
2022-08-24T01:51:06.431Z,13.50
2022-08-24T01:53:34.446Z,13.50
2022-08-24T01:56:04.186Z,13.50
2022-08-24T01:58:32.011Z,13.50
2022-08-24T02:01:00.117Z,13.30
2022-08-24T02:03:30.373Z,13.40
2022-08-24T02:05:58.866Z,13.50
2022-08-24T02:08:26.891Z,13.60
2022-08-24T02:10:56.365Z,13.60
2022-08-24T02:13:28.704Z,13.60
2022-08-24T02:15:56.642Z,13.60
2022-08-24T02:18:24.686Z,13.70
2022-08-24T02:20:53.227Z,13.70
2022-08-24T02:23:21.278Z,13.60
2022-08-24T02:25:49.642Z,13.60
2022-08-24T02:28:17.506Z,13.60
2022-08-24T02:30:47.125Z,13.70
2022-08-24T02:33:15.054Z,13.60
2022-08-24T02:35:42.948Z,13.70
2022-08-24T02:38:11.008Z,13.60
2022-08-24T02:40:39.362Z,13.60
2022-08-24T02:43:07.317Z,13.50
2022-08-24T02:45:39.802Z,13.50
2022-08-24T02:48:09.363Z,13.50
2022-08-24T02:50:40.511Z,13.40
2022-08-24T02:53:08.365Z,13.40
2022-08-24T02:55:36.676Z,13.40
2022-08-24T02:58:04.514Z,13.40
2022-08-24T03:00:32.391Z,13.40
2022-08-24T03:03:01.732Z,13.40
2022-08-24T03:05:31.284Z,13.30
2022-08-24T03:07:59.150Z,13.30
2022-08-24T03:10:28.651Z,13.40
2022-08-24T03:12:58.766Z,13.30
2022-08-24T03:15:27.223Z,13.20
2022-08-24T03:17:55.144Z,13.20
2022-08-24T03:20:24.729Z,13.10
2022-08-24T03:22:54.152Z,13.30
2022-08-24T03:25:25.120Z,13.20
2022-08-24T03:27:53.714Z,13.20
2022-08-24T03:30:23.574Z,13.20
2022-08-24T03:32:51.856Z,13.10
2022-08-24T03:35:21.773Z,13.10
2022-08-24T03:37:49.739Z,13.00
2022-08-24T03:40:23.005Z,12.90
2022-08-24T03:42:53.010Z,13.00
2022-08-24T03:45:21.462Z,13.00
2022-08-24T03:47:49.644Z,12.90
2022-08-24T03:50:17.994Z,12.80
2022-08-24T03:52:45.961Z,12.90
2022-08-24T03:55:14.249Z,12.90
2022-08-24T03:57:43.425Z,12.80
2022-08-24T04:00:14.074Z,12.80
2022-08-24T04:02:41.999Z,12.80
2022-08-24T04:05:10.686Z,12.80
2022-08-24T04:07:38.706Z,12.70
2022-08-24T04:10:07.590Z,12.70
2022-08-24T04:12:35.578Z,12.60
2022-08-24T04:15:05.791Z,12.60
2022-08-24T04:17:33.621Z,12.60
2022-08-24T04:20:01.874Z,12.60
2022-08-24T04:22:32.709Z,12.60
2022-08-24T04:25:00.670Z,12.70
2022-08-24T04:27:28.527Z,12.60
2022-08-24T04:29:56.382Z,12.70
2022-08-24T04:32:25.522Z,12.70
2022-08-24T04:34:53.307Z,12.70
2022-08-24T04:37:27.995Z,12.70
2022-08-24T04:39:57.299Z,12.70
2022-08-24T04:42:25.703Z,12.80
2022-08-24T04:44:53.749Z,12.90
2022-08-24T04:47:21.581Z,12.80
2022-08-24T04:49:50.831Z,12.80
2022-08-24T04:52:18.589Z,12.80
2022-08-24T04:54:46.568Z,12.80
2022-08-24T04:57:18.222Z,12.80
2022-08-24T04:59:46.412Z,12.80
2022-08-24T05:02:14.550Z,12.80
2022-08-24T05:04:42.386Z,12.90
2022-08-24T05:07:12.279Z,13.00
2022-08-24T05:09:40.095Z,13.10
2022-08-24T05:12:08.201Z,13.20
2022-08-24T05:14:36.119Z,13.30
2022-08-24T05:17:04.054Z,13.30
2022-08-24T05:19:31.917Z,13.40
2022-08-24T05:21:59.753Z,13.50
2022-08-24T05:24:29.993Z,13.50
2022-08-24T05:27:00.205Z,13.70
2022-08-24T05:29:28.179Z,13.80
2022-08-24T05:31:56.186Z,13.80
2022-08-24T05:34:25.234Z,13.90
2022-08-24T05:36:53.226Z,14.00
2022-08-24T05:39:22.586Z,14.00
2022-08-24T05:41:51.723Z,14.10
2022-08-24T05:44:19.642Z,14.20
2022-08-24T05:46:47.753Z,14.20
2022-08-24T05:49:15.614Z,14.40
2022-08-24T05:51:43.466Z,14.50
2022-08-24T05:54:13.551Z,14.60
2022-08-24T05:56:42.180Z,14.80
2022-08-24T05:59:11.594Z,14.80
2022-08-24T06:01:44.617Z,14.80
2022-08-24T06:04:13.353Z,15.00
2022-08-24T06:06:42.105Z,15.10
2022-08-24T06:09:12.707Z,15.20
2022-08-24T06:11:42.119Z,15.20
2022-08-24T06:14:13.256Z,15.30
2022-08-24T06:16:43.871Z,15.50
2022-08-24T06:19:14.231Z,15.60
2022-08-24T06:21:42.937Z,15.80
2022-08-24T06:24:11.011Z,15.80
2022-08-24T06:26:56.410Z,16.10
2022-08-24T06:29:25.587Z,16.20
2022-08-24T06:31:56.023Z,16.40
2022-08-24T06:34:25.943Z,16.50
2022-08-24T06:36:53.929Z,16.60
2022-08-24T06:39:22.026Z,16.70
2022-08-24T06:41:49.894Z,16.90
2022-08-24T06:44:17.738Z,16.90
2022-08-24T06:46:46.966Z,17.10
2022-08-24T06:49:14.974Z,17.20
2022-08-24T06:51:44.638Z,17.30
2022-08-24T06:54:14.176Z,17.40
2022-08-24T06:56:42.647Z,17.50
2022-08-24T06:59:10.478Z,17.60
2022-08-24T07:01:38.371Z,17.70
2022-08-24T07:04:07.547Z,17.80
2022-08-24T07:06:36.850Z,18.00
2022-08-24T07:09:05.586Z,17.90
2022-08-24T07:11:34.935Z,18.00
2022-08-24T07:14:03.027Z,18.20
2022-08-24T07:16:31.310Z,18.30
2022-08-24T07:18:59.758Z,18.50
2022-08-24T07:21:29.510Z,18.60
2022-08-24T07:23:59.910Z,18.60
2022-08-24T07:26:30.283Z,18.60
2022-08-24T07:29:04.954Z,18.80
2022-08-24T07:31:35.362Z,18.90
2022-08-24T07:34:04.529Z,19.00
2022-08-24T07:36:33.921Z,19.10
2022-08-24T07:39:02.620Z,19.20
2022-08-24T07:41:43.355Z,19.30
2022-08-24T07:44:15.529Z,19.40
2022-08-24T07:46:44.142Z,19.50
2022-08-24T07:49:31.661Z,19.50
2022-08-24T07:52:02.195Z,19.70
2022-08-24T07:54:30.171Z,19.90
2022-08-24T07:57:02.171Z,20.00
2022-08-24T07:59:29.974Z,20.10
2022-08-24T08:01:58.800Z,20.20
2022-08-24T08:04:27.673Z,20.30
2022-08-24T08:09:30.559Z,20.60
2022-08-24T08:11:58.658Z,20.60
2022-08-24T08:14:26.478Z,20.70
2022-08-24T08:16:54.693Z,20.70
2022-08-24T08:19:22.539Z,20.90
2022-08-24T08:22:11.419Z,20.90
2022-08-24T08:24:42.598Z,20.90
2022-08-24T08:27:10.723Z,20.90
2022-08-24T08:29:40.529Z,21.10
2022-08-24T08:32:09.436Z,21.30
2022-08-24T08:34:37.869Z,21.30
2022-08-24T08:37:06.458Z,21.50
2022-08-24T08:39:34.724Z,21.40
2022-08-24T08:42:32.045Z,21.40
2022-08-24T08:45:31.730Z,21.60
2022-08-24T08:48:29.026Z,21.60
2022-08-24T08:51:26.183Z,21.80
2022-08-24T08:54:14.182Z,21.90
2022-08-24T08:56:54.970Z,21.80
2022-08-24T08:59:41.868Z,21.90
2022-08-24T09:02:26.833Z,21.80
2022-08-24T09:05:16.556Z,22.10
2022-08-24T09:07:56.541Z,22.20
2022-08-24T09:10:45.713Z,22.20
2022-08-24T09:13:28.206Z,22.20
2022-08-24T09:16:10.649Z,22.30
2022-08-24T09:18:54.260Z,22.40
2022-08-24T09:21:49.738Z,22.40
2022-08-24T09:25:04.097Z,22.50
2022-08-24T09:27:42.837Z,22.70
2022-08-24T09:30:13.722Z,22.80
2022-08-24T09:32:59.047Z,22.90
2022-08-24T09:35:34.614Z,23.00
2022-08-24T09:38:13.370Z,23.10
2022-08-24T09:40:59.317Z,23.00
2022-08-24T09:43:58.323Z,23.10
2022-08-24T09:46:57.769Z,23.20
2022-08-24T09:50:05.884Z,23.30
2022-08-24T09:53:18.611Z,23.40
2022-08-24T09:56:16.562Z,23.30
2022-08-24T09:58:57.539Z,23.40
2022-08-24T10:01:32.335Z,23.60
2022-08-24T10:04:15.652Z,23.50
2022-08-24T10:06:57.199Z,23.60
2022-08-24T10:10:02.923Z,23.50
2022-08-24T10:12:46.926Z,23.40
2022-08-24T10:15:21.201Z,23.50
2022-08-24T10:18:18.626Z,23.50
2022-08-24T10:21:10.221Z,23.50
2022-08-24T10:24:08.722Z,23.60
2022-08-24T10:26:46.887Z,23.60
2022-08-24T10:29:32.230Z,23.90
2022-08-24T10:32:18.941Z,24.10
2022-08-24T10:35:03.285Z,24.10
2022-08-24T10:38:14.782Z,23.90
2022-08-24T10:40:54.556Z,24.10
2022-08-24T10:43:52.609Z,24.30
2022-08-24T10:46:38.442Z,24.30
2022-08-24T10:49:49.197Z,24.40
2022-08-24T10:52:47.689Z,24.20
2022-08-24T10:55:20.332Z,24.30
2022-08-24T10:58:07.230Z,24.20
2022-08-24T11:00:35.549Z,24.10
2022-08-24T11:03:10.113Z,24.10
2022-08-24T11:05:43.486Z,24.10
2022-08-24T11:08:19.327Z,24.20
2022-08-24T11:10:47.762Z,24.30
2022-08-24T11:13:23.858Z,24.10
2022-08-24T11:15:54.163Z,24.20
2022-08-24T11:18:22.969Z,24.20
2022-08-24T11:20:53.550Z,24.30
2022-08-24T11:23:25.564Z,24.30
2022-08-24T11:26:02.506Z,24.40
2022-08-24T11:28:37.065Z,24.30
2022-08-24T11:31:05.337Z,24.40
2022-08-24T11:33:36.657Z,24.50
2022-08-24T11:36:20.869Z,24.30
2022-08-24T11:38:50.204Z,24.50
2022-08-24T11:41:24.121Z,24.50
2022-08-24T11:44:03.090Z,24.40
2022-08-24T11:46:37.328Z,24.30
2022-08-24T11:49:13.914Z,24.20
2022-08-24T11:51:50.751Z,24.40
2022-08-24T11:54:25.883Z,24.60
2022-08-24T11:57:08.382Z,24.80
2022-08-24T11:59:48.460Z,24.60
2022-08-24T12:02:24.512Z,24.60
2022-08-24T12:04:58.540Z,24.60
2022-08-24T12:07:40.921Z,24.80
2022-08-24T12:10:21.388Z,25.00
2022-08-24T12:12:55.899Z,25.10
2022-08-24T12:15:36.862Z,25.20
2022-08-24T12:18:11.079Z,25.10
2022-08-24T12:20:43.038Z,25.20
2022-08-24T12:23:22.267Z,25.30
2022-08-24T12:26:04.870Z,25.20
2022-08-24T12:28:38.485Z,25.20
2022-08-24T12:31:14.092Z,24.90
2022-08-24T12:33:48.295Z,25.00
2022-08-24T12:36:26.463Z,25.00
2022-08-24T12:39:05.626Z,25.20
2022-08-24T12:41:37.639Z,24.70
2022-08-24T12:44:12.419Z,24.70
2022-08-24T12:46:44.591Z,24.90
2022-08-24T12:49:20.250Z,24.80
2022-08-24T12:52:14.779Z,24.60
2022-08-24T12:55:08.278Z,24.60
2022-08-24T12:57:54.597Z,24.70
2022-08-24T13:00:26.037Z,24.70
2022-08-24T13:03:01.731Z,24.60
2022-08-24T13:05:41.149Z,24.60
2022-08-24T13:08:16.484Z,24.60
2022-08-24T13:10:53.780Z,24.80
2022-08-24T13:13:41.824Z,24.80
2022-08-24T13:16:10.750Z,24.70
2022-08-24T13:19:19.390Z,24.90
2022-08-24T13:21:55.138Z,24.90
2022-08-24T13:25:00.441Z,25.00
2022-08-24T13:28:13.084Z,24.70
2022-08-24T13:31:03.763Z,24.80
2022-08-24T13:33:37.611Z,24.70
2022-08-24T13:36:39.468Z,24.70
2022-08-24T13:39:16.319Z,24.70
2022-08-24T13:41:55.284Z,24.80
2022-08-24T13:44:38.954Z,24.70
2022-08-24T13:47:17.662Z,24.60
2022-08-24T13:50:02.060Z,24.60
2022-08-24T13:52:44.645Z,24.60
2022-08-24T13:55:34.235Z,24.70
2022-08-24T13:58:16.171Z,24.60
2022-08-24T14:00:49.752Z,24.80
2022-08-24T14:04:02.543Z,24.70
2022-08-24T14:06:36.020Z,24.80
2022-08-24T14:09:18.597Z,24.90
2022-08-24T14:12:13.686Z,25.00
2022-08-24T14:15:02.566Z,25.00
2022-08-24T14:17:55.923Z,25.00
2022-08-24T14:20:50.261Z,24.60
2022-08-24T14:23:32.432Z,24.40
2022-08-24T14:26:38.016Z,24.20
2022-08-24T14:29:34.215Z,24.30
2022-08-24T14:32:40.583Z,24.30
2022-08-24T14:35:36.083Z,24.40
2022-08-24T14:38:26.236Z,24.50
2022-08-24T14:41:28.231Z,24.50
2022-08-24T14:44:25.098Z,24.50
2022-08-24T14:47:03.309Z,24.40
2022-08-24T14:49:39.084Z,24.30
2022-08-24T14:52:22.261Z,24.10
2022-08-24T14:55:04.573Z,23.90
2022-08-24T14:57:51.350Z,23.70
2022-08-24T15:00:22.175Z,23.70
2022-08-24T15:03:25.820Z,23.70
2022-08-24T15:06:26.114Z,23.90
2022-08-24T15:09:06.023Z,24.00
2022-08-24T15:11:38.164Z,24.00
2022-08-24T15:14:10.319Z,24.00
2022-08-24T15:16:53.454Z,24.10
2022-08-24T15:19:36.604Z,24.30
2022-08-24T15:22:11.474Z,24.30
2022-08-24T15:24:44.556Z,24.30
2022-08-24T15:27:25.010Z,24.20
2022-08-24T15:29:56.321Z,23.90
2022-08-24T15:32:28.207Z,23.80
2022-08-24T15:34:59.683Z,23.60
2022-08-24T15:37:31.111Z,23.50
2022-08-24T15:39:59.461Z,23.50
2022-08-24T15:42:29.800Z,23.60
2022-08-24T15:45:01.933Z,23.70
2022-08-24T15:47:33.575Z,23.80
2022-08-24T15:50:06.367Z,23.90
2022-08-24T15:52:51.090Z,24.10
2022-08-24T15:55:36.161Z,24.30
2022-08-24T15:58:30.286Z,24.30
2022-08-24T16:01:37.229Z,24.30
2022-08-24T16:04:12.462Z,24.40
2022-08-24T16:06:45.360Z,24.20
2022-08-24T16:09:36.185Z,24.30
2022-08-24T16:12:07.760Z,24.30
2022-08-24T16:14:37.905Z,24.10
2022-08-24T16:17:26.186Z,23.90
2022-08-24T16:19:57.168Z,23.80
2022-08-24T16:22:33.217Z,23.70
2022-08-24T16:25:18.866Z,23.70
2022-08-24T16:28:00.505Z,23.60
2022-08-24T16:30:39.420Z,23.50
2022-08-24T16:33:08.208Z,23.50
2022-08-24T16:35:36.446Z,23.50
2022-08-24T16:38:05.855Z,23.50
2022-08-24T16:40:36.299Z,23.50
2022-08-24T16:43:04.230Z,23.40
2022-08-24T16:45:35.834Z,23.40
2022-08-24T16:48:04.840Z,23.40
2022-08-24T16:50:32.927Z,23.40
2022-08-24T16:53:00.758Z,23.30
2022-08-24T16:55:29.995Z,23.30
2022-08-24T16:57:57.937Z,23.30
2022-08-24T17:00:25.859Z,23.20
2022-08-24T17:02:54.248Z,23.20
2022-08-24T17:05:22.418Z,23.20
2022-08-24T17:07:51.680Z,23.10
2022-08-24T17:10:23.051Z,23.10
2022-08-24T17:12:52.270Z,23.10
2022-08-24T17:15:20.879Z,23.10
2022-08-24T17:17:56.219Z,23.00
2022-08-24T17:20:24.290Z,23.00
2022-08-24T17:22:52.097Z,23.00
2022-08-24T17:25:19.958Z,23.00
2022-08-24T17:27:48.535Z,23.00
2022-08-24T17:30:18.448Z,22.90
2022-08-24T17:32:47.770Z,22.90
2022-08-24T17:35:15.902Z,22.80
2022-08-24T17:37:44.370Z,22.70
2022-08-24T17:40:16.629Z,22.70
2022-08-24T17:43:01.454Z,22.70
2022-08-24T17:45:30.833Z,22.60
2022-08-24T17:47:58.724Z,22.50
2022-08-24T17:50:28.334Z,22.50
2022-08-24T17:52:58.862Z,22.50
2022-08-24T17:55:28.626Z,22.40
2022-08-24T17:57:56.456Z,22.30
2022-08-24T18:00:24.664Z,22.20
2022-08-24T18:02:53.806Z,22.20
2022-08-24T18:05:22.069Z,22.10
2022-08-24T18:07:54.001Z,22.00
2022-08-24T18:10:24.699Z,22.00
2022-08-24T18:12:53.068Z,21.90
2022-08-24T18:15:21.096Z,21.80
2022-08-24T18:17:51.762Z,21.80
2022-08-24T18:20:26.995Z,21.70
2022-08-24T18:22:55.122Z,21.60
2022-08-24T18:25:23.942Z,21.60
2022-08-24T18:27:54.271Z,21.50
2022-08-24T18:30:28.758Z,21.40
2022-08-24T18:32:57.222Z,21.30
2022-08-24T18:35:26.441Z,21.20
2022-08-24T18:37:54.232Z,21.20
2022-08-24T18:40:22.159Z,21.10
2022-08-24T18:42:51.530Z,21.10
2022-08-24T18:45:19.538Z,21.10
2022-08-24T18:47:53.147Z,21.00
2022-08-24T18:50:21.990Z,21.00
2022-08-24T18:52:51.443Z,20.90
2022-08-24T18:55:19.400Z,20.90
2022-08-24T18:57:47.331Z,20.80
2022-08-24T19:00:16.110Z,20.80
2022-08-24T19:02:44.951Z,20.80
2022-08-24T19:05:16.249Z,20.70
2022-08-24T19:07:46.307Z,20.60
2022-08-24T19:10:18.832Z,20.60
2022-08-24T19:12:49.247Z,20.60
2022-08-24T19:15:32.227Z,20.60
2022-08-24T19:18:06.616Z,20.50
2022-08-24T19:20:35.332Z,20.50
2022-08-24T19:23:08.968Z,20.50
2022-08-24T19:25:40.455Z,20.50
2022-08-24T19:28:08.690Z,20.40
2022-08-24T19:30:37.956Z,20.40
2022-08-24T19:33:10.492Z,20.40
2022-08-24T19:35:41.247Z,20.30
2022-08-24T19:38:09.537Z,20.30
2022-08-24T19:40:39.301Z,20.30
2022-08-24T19:43:15.902Z,20.30
2022-08-24T19:46:01.655Z,20.30
2022-08-24T19:48:30.137Z,20.30
2022-08-24T19:50:59.798Z,20.10
2022-08-24T19:53:29.679Z,20.20
2022-08-24T19:55:59.457Z,20.10
2022-08-24T19:58:31.291Z,20.10
2022-08-24T20:01:05.532Z,20.00
2022-08-24T20:03:33.533Z,20.00
2022-08-24T20:06:01.400Z,20.00
2022-08-24T20:08:29.254Z,20.00
2022-08-24T20:11:00.323Z,20.10
2022-08-24T20:13:28.279Z,20.00
2022-08-24T20:15:57.214Z,20.00
2022-08-24T20:18:30.576Z,20.00
2022-08-24T20:20:58.871Z,20.00
2022-08-24T20:23:27.464Z,20.00
2022-08-24T20:25:56.435Z,20.00
2022-08-24T20:28:30.600Z,20.00
2022-08-24T20:31:00.723Z,20.00
2022-08-24T20:33:28.638Z,20.00
2022-08-24T20:35:57.191Z,19.90
2022-08-24T20:38:25.246Z,19.90
2022-08-24T20:40:57.142Z,19.90
2022-08-24T20:43:26.312Z,19.80
2022-08-24T20:45:54.618Z,19.70
2022-08-24T20:48:27.100Z,19.70
2022-08-24T20:50:55.312Z,19.70
2022-08-24T20:53:23.217Z,19.60
2022-08-24T20:55:51.059Z,19.60
2022-08-24T20:58:21.464Z,19.50
2022-08-24T21:00:51.284Z,19.50
2022-08-24T21:03:19.824Z,19.50
2022-08-24T21:05:51.145Z,19.40
2022-08-24T21:08:19.337Z,19.40
2022-08-24T21:10:47.151Z,19.40
2022-08-24T21:13:14.984Z,19.40
2022-08-24T21:15:43.030Z,19.40
2022-08-24T21:18:12.484Z,19.40
2022-08-24T21:20:44.689Z,19.40
2022-08-24T21:23:28.579Z,19.30
2022-08-24T21:25:56.474Z,19.30
2022-08-24T21:28:24.621Z,19.20
2022-08-24T21:30:52.459Z,19.20
2022-08-24T21:33:39.458Z,19.20
2022-08-24T21:36:08.518Z,19.00
2022-08-24T21:38:37.035Z,18.90
2022-08-24T21:41:07.087Z,18.80
2022-08-24T21:43:34.871Z,18.70
2022-08-24T21:46:02.707Z,18.70
2022-08-24T21:48:31.869Z,18.60
2022-08-24T21:50:59.663Z,18.50
2022-08-24T21:53:28.657Z,18.40
2022-08-24T21:55:57.203Z,18.40
2022-08-24T21:58:26.142Z,18.40
2022-08-24T22:00:54.283Z,18.40
2022-08-24T22:03:32.715Z,18.30
2022-08-24T22:06:09.567Z,18.40
2022-08-24T22:08:38.187Z,18.30
2022-08-24T22:11:06.339Z,18.30
2022-08-24T22:13:34.692Z,18.30
2022-08-24T22:16:03.038Z,18.20
2022-08-24T22:18:30.996Z,18.20
2022-08-24T22:20:59.193Z,18.10
2022-08-24T22:23:28.846Z,18.10
2022-08-24T22:25:56.649Z,18.00
2022-08-24T22:28:24.559Z,18.00
2022-08-24T22:30:52.515Z,18.00
2022-08-24T22:33:20.374Z,18.00
2022-08-24T22:35:50.207Z,18.00
2022-08-24T22:38:18.444Z,18.00
2022-08-24T22:40:47.893Z,17.90
2022-08-24T22:43:15.729Z,18.00
2022-08-24T22:45:43.560Z,17.90
2022-08-24T22:48:11.407Z,17.90
2022-08-24T22:50:43.069Z,17.90
2022-08-24T22:53:10.962Z,17.90
2022-08-24T22:55:38.777Z,17.90
2022-08-24T22:58:07.927Z,17.80
2022-08-24T23:00:35.937Z,17.80
2022-08-24T23:03:03.953Z,17.90
2022-08-24T23:05:31.882Z,17.80
2022-08-24T23:07:59.858Z,17.80
2022-08-24T23:10:27.652Z,17.80
2022-08-24T23:12:55.472Z,17.70
2022-08-24T23:15:24.839Z,17.70
2022-08-24T23:17:54.306Z,17.70
2022-08-24T23:20:21.170Z,17.60
2022-08-24T23:22:49.883Z,17.60
2022-08-24T23:25:17.694Z,17.50
2022-08-24T23:27:48.055Z,17.50
2022-08-24T23:30:18.032Z,17.40
2022-08-24T23:32:47.502Z,17.50
2022-08-24T23:35:15.277Z,17.50
2022-08-24T23:37:43.134Z,17.50
2022-08-24T23:40:12.124Z,17.50
2022-08-24T23:42:39.982Z,17.50
2022-08-24T23:45:11.873Z,17.50
2022-08-24T23:47:41.309Z,17.50
2022-08-24T23:50:11.626Z,17.40
2022-08-24T23:52:40.267Z,17.40
2022-08-24T23:55:21.370Z,17.40
2022-08-24T23:57:50.767Z,17.40
